Time;durP1;ratioP1;P1;durP2;ratioP2;P2;SDS_P1;SDS_P2;PMS_P1;PMS_P2;Temp;Humidity;BMP_temperature;BMP_pressure;BME280_temperature;BME280_humidity;BME280_pressure;Samples;Min_cycle;Max_cycle;Signal;HPM_P1;HPM_P2
2024/01/21 00:00:37;;;;;;;0.30;0.20;;;;;;;3.39;83.00;96146.38;5132747;28;20450;-57
2024/01/21 00:03:05;;;;;;;0.30;0.20;;;;;;;3.55;84.03;96137.28;5118248;27;20439;-56
2024/01/21 00:05:34;;;;;;;0.30;0.20;;;;;;;3.15;85.98;96094.63;5131933;28;20494;-57
2024/01/21 00:08:03;;;;;;;0.40;0.20;;;;;;;3.68;83.14;96143.31;5131506;28;20518;-56
2024/01/21 00:10:32;;;;;;;0.50;0.30;;;;;;;3.46;82.44;96155.06;5132162;27;20438;-57
2024/01/21 00:13:02;;;;;;;0.40;0.20;;;;;;;3.31;83.57;96144.00;5131851;28;20462;-56
2024/01/21 00:15:30;;;;;;;0.30;0.20;;;;;;;3.59;83.92;96126.19;5131877;27;20955;-57
2024/01/21 00:17:59;;;;;;;0.93;0.93;;;;;;;3.31;83.34;96130.91;5131617;28;20475;-57
2024/01/21 00:20:30;;;;;;;0.40;0.40;;;;;;;3.85;84.43;96141.03;5131849;28;20492;-57
2024/01/21 00:22:59;;;;;;;0.30;0.20;;;;;;;4.13;85.00;96145.97;5131739;28;20462;-57
2024/01/21 00:25:28;;;;;;;0.30;0.20;;;;;;;4.17;83.78;96123.56;5132027;27;20972;-57
2024/01/21 00:27:56;;;;;;;0.30;0.20;;;;;;;4.23;83.46;96151.56;5131603;27;20434;-58
2024/01/21 00:30:26;;;;;;;0.30;0.20;;;;;;;4.35;84.54;96155.16;5132039;28;20439;-57
2024/01/21 00:32:55;;;;;;;0.30;0.20;;;;;;;4.40;83.54;96155.34;5131770;27;20473;-58
2024/01/21 00:35:23;;;;;;;0.50;0.33;;;;;;;3.97;82.98;96100.06;5131963;27;20507;-56
2024/01/21 00:37:52;;;;;;;0.47;0.30;;;;;;;4.16;82.96;96166.53;5102189;28;20800;-57
2024/01/21 00:40:20;;;;;;;0.30;0.20;;;;;;;3.92;82.84;96164.63;5129097;27;20446;-57
2024/01/21 00:42:49;;;;;;;0.40;0.23;;;;;;;3.80;83.66;96164.44;5135099;27;20815;-57
2024/01/21 00:45:18;;;;;;;0.30;0.30;;;;;;;4.01;87.31;96168.63;5134655;27;20438;-58
2024/01/21 00:47:48;;;;;;;0.30;0.20;;;;;;;4.20;88.49;96170.38;5135251;27;20434;-58
2024/01/21 00:50:17;;;;;;;0.30;0.30;;;;;;;4.08;86.19;96174.63;5135379;27;20434;-59
2024/01/21 00:52:45;;;;;;;0.40;0.30;;;;;;;3.75;85.68;96179.97;5134770;27;20469;-59
2024/01/21 00:55:14;;;;;;;0.80;0.40;;;;;;;3.88;86.30;96176.53;5134725;27;20503;-59
2024/01/21 00:57:43;;;;;;;0.40;0.40;;;;;;;4.11;86.51;96176.84;5135501;27;20822;-59
2024/01/21 01:00:13;;;;;;;0.67;0.60;;;;;;;4.09;86.40;96177.06;5135088;27;20435;-59
2024/01/21 01:02:41;;;;;;;0.80;0.50;;;;;;;3.80;88.60;96165.25;5134440;27;20438;-59
2024/01/21 01:05:12;;;;;;;0.40;0.30;;;;;;;4.06;90.65;96171.44;5134647;27;20430;-59
2024/01/21 01:07:40;;;;;;;0.50;0.50;;;;;;;4.14;92.25;96169.38;5134309;27;20527;-59
2024/01/21 01:10:09;;;;;;;0.90;0.63;;;;;;;4.19;90.59;96169.56;5134120;27;20431;-60
2024/01/21 01:12:38;;;;;;;1.73;0.47;;;;;;;4.22;90.82;96176.22;5134957;27;20531;-59
2024/01/21 01:15:11;;;;;;;0.50;0.50;;;;;;;3.74;92.58;96179.16;5134259;27;20462;-59
2024/01/21 01:17:39;;;;;;;1.40;1.33;;;;;;;3.54;93.64;96178.41;5134817;27;20897;-58
2024/01/21 01:20:09;;;;;;;0.53;0.53;;;;;;;3.36;97.31;96185.31;5134380;27;20439;-58
2024/01/21 01:22:39;;;;;;;0.83;0.77;;;;;;;3.62;95.14;96182.63;5134271;27;20958;-58
2024/01/21 01:25:09;;;;;;;0.63;0.40;;;;;;;3.59;91.43;96181.22;5134926;27;20814;-59
2024/01/21 01:27:37;;;;;;;0.63;0.40;;;;;;;3.31;88.79;96190.34;5134534;27;20441;-58
2024/01/21 01:30:07;;;;;;;0.30;0.30;;;;;;;2.84;86.34;96138.97;5134213;27;20442;-59
2024/01/21 01:32:36;;;;;;;1.00;0.63;;;;;;;3.31;87.41;96183.28;5134076;27;20434;-58
2024/01/21 01:35:06;;;;;;;0.57;0.57;;;;;;;3.24;87.37;96198.19;5134298;27;20438;-58
2024/01/21 01:37:35;;;;;;;0.30;0.20;;;;;;;3.64;87.88;96197.16;5134150;27;20856;-58
2024/01/21 01:40:07;;;;;;;0.30;0.20;;;;;;;3.38;87.09;96184.09;5134007;27;20960;-58
2024/01/21 01:42:35;;;;;;;0.40;0.40;;;;;;;3.19;87.03;96188.31;5134183;27;20441;-58
2024/01/21 01:45:05;;;;;;;0.30;0.20;;;;;;;3.55;87.07;96194.94;5134512;27;20438;-58
2024/01/21 01:47:34;;;;;;;0.30;0.20;;;;;;;3.51;87.88;96170.16;5105733;27;20468;-58
2024/01/21 01:50:03;;;;;;;0.30;0.20;;;;;;;2.83;85.81;96151.25;5133104;27;20439;-57
2024/01/21 01:52:33;;;;;;;0.30;0.20;;;;;;;3.39;86.22;96201.41;5133609;27;20438;-58
2024/01/21 01:55:01;;;;;;;0.30;0.20;;;;;;;3.26;85.90;96205.88;5133500;27;20452;-58
2024/01/21 01:57:31;;;;;;;0.30;0.23;;;;;;;3.72;85.39;96204.78;5133737;27;20466;-58
2024/01/21 02:00:00;;;;;;;0.40;0.20;;;;;;;3.61;82.66;96210.69;5134260;27;20470;-58
2024/01/21 02:02:29;;;;;;;0.30;0.20;;;;;;;3.63;84.87;96211.28;5134140;27;20474;-57
2024/01/21 02:05:00;;;;;;;0.40;0.30;;;;;;;3.47;83.56;96206.44;5133941;27;20499;-58
2024/01/21 02:07:28;;;;;;;0.30;0.20;;;;;;;3.64;84.87;96209.47;5133714;27;20474;-58
2024/01/21 02:09:57;;;;;;;0.30;0.20;;;;;;;3.24;84.87;96190.31;5133728;27;20930;-57
2024/01/21 02:12:26;;;;;;;0.67;0.30;;;;;;;2.69;84.36;96068.50;5133787;27;20442;-58
2024/01/21 02:14:56;;;;;;;0.30;0.20;;;;;;;3.66;83.59;96216.13;5133603;27;20434;-58
2024/01/21 02:17:25;;;;;;;0.47;0.20;;;;;;;3.78;83.15;96211.03;5133944;27;20461;-58
2024/01/21 02:19:53;;;;;;;0.40;0.40;;;;;;;3.77;84.03;96212.84;5133231;27;20440;-57
2024/01/21 02:22:25;;;;;;;0.90;0.33;;;;;;;3.81;85.06;96202.78;5133599;27;20439;-58
2024/01/21 02:24:55;;;;;;;0.30;0.20;;;;;;;3.51;82.83;96215.53;5107534;27;20470;-58
2024/01/21 02:27:24;;;;;;;6.33;0.70;;;;;;;3.43;83.46;96220.97;5133186;27;20446;-57
2024/01/21 02:29:52;;;;;;;1.33;0.33;;;;;;;3.59;83.33;96217.13;5133303;27;20470;-57
2024/01/21 02:32:21;;;;;;;0.30;0.20;;;;;;;3.72;82.90;96223.16;5132695;27;20499;-57
2024/01/21 02:34:50;;;;;;;0.67;0.30;;;;;;;3.82;82.59;96223.53;5133574;27;20934;-57
2024/01/21 02:37:18;;;;;;;0.30;0.20;;;;;;;3.50;80.25;96224.38;5133273;27;20938;-57
2024/01/21 02:39:47;;;;;;;0.40;0.40;;;;;;;3.09;80.21;96227.19;5133209;27;20513;-57
2024/01/21 02:42:17;;;;;;;0.30;0.20;;;;;;;3.32;81.20;96224.19;5133165;27;20528;-57
2024/01/21 02:44:46;;;;;;;1.70;0.37;;;;;;;3.43;80.98;96239.31;5133750;27;20521;-57
2024/01/21 02:47:14;;;;;;;0.30;0.20;;;;;;;3.22;80.22;96240.31;5132667;27;21011;-57
2024/01/21 02:49:43;;;;;;;0.30;0.20;;;;;;;3.11;79.91;96242.72;5132786;27;20509;-57
2024/01/21 02:52:12;;;;;;;0.30;0.20;;;;;;;3.15;80.66;96210.69;5133053;27;20431;-57
2024/01/21 02:54:41;;;;;;;0.30;0.20;;;;;;;3.63;80.62;96229.63;5132796;27;20430;-56
2024/01/21 02:57:10;;;;;;;0.30;0.30;;;;;;;3.75;80.68;96245.53;5132148;27;20443;-56
2024/01/21 02:59:40;;;;;;;0.40;0.30;;;;;;;3.59;79.33;96249.38;5132838;27;20485;-57
2024/01/21 03:02:08;;;;;;;0.30;0.20;;;;;;;3.46;81.30;96252.03;5133065;27;20441;-56
2024/01/21 03:04:37;;;;;;;0.30;0.30;;;;;;;3.30;80.48;96254.22;5131904;27;20438;-55
2024/01/21 03:07:06;;;;;;;0.30;0.20;;;;;;;3.31;80.96;96258.47;5132960;27;20507;-56
2024/01/21 03:09:34;;;;;;;0.30;0.20;;;;;;;3.33;80.12;96238.91;5131806;27;20438;-56
2024/01/21 03:12:03;;;;;;;0.30;0.20;;;;;;;3.38;81.45;96264.50;5132528;27;20466;-57
2024/01/21 03:14:32;;;;;;;0.30;0.20;;;;;;;3.27;80.45;96265.91;5131842;27;20430;-57
2024/01/21 03:17:03;;;;;;;0.30;0.20;;;;;;;3.19;81.30;96256.44;5133077;27;20435;-57
2024/01/21 03:19:32;;;;;;;0.30;0.30;;;;;;;3.27;80.62;96265.91;5131429;27;20539;-57
2024/01/21 03:22:00;;;;;;;0.30;0.20;;;;;;;3.37;79.83;96261.06;5132037;27;20950;-58
2024/01/21 03:24:31;;;;;;;0.40;0.30;;;;;;;2.86;79.23;96231.22;5132128;27;20426;-58
2024/01/21 03:27:00;;;;;;;0.47;0.30;;;;;;;3.41;80.63;96261.50;5132385;27;20518;-58
2024/01/21 03:29:28;;;;;;;0.40;0.30;;;;;;;3.33;80.34;96254.63;5132273;27;20431;-58
2024/01/21 03:31:57;;;;;;;0.30;0.27;;;;;;;3.38;79.28;96270.56;5132911;28;20475;-58
2024/01/21 03:34:27;;;;;;;0.30;0.20;;;;;;;3.04;79.94;96262.84;5132664;27;20953;-59
2024/01/21 03:36:56;;;;;;;0.40;0.40;;;;;;;3.02;80.29;96262.25;5132258;28;20442;-58
2024/01/21 03:39:24;;;;;;;0.30;0.20;;;;;;;3.09;79.51;96263.88;5131838;27;20474;-58
2024/01/21 03:41:53;;;;;;;0.70;0.20;;;;;;;3.41;79.12;96264.13;5132355;28;20438;-57
2024/01/21 03:44:21;;;;;;;0.30;0.20;;;;;;;2.88;78.70;96247.53;5132201;28;20938;-57
2024/01/21 03:46:50;;;;;;;0.30;0.20;;;;;;;2.95;79.99;96264.88;5132524;27;20939;-57
2024/01/21 03:49:19;;;;;;;2.40;0.20;;;;;;;2.96;79.65;96268.28;5132287;27;20514;-58
2024/01/21 03:51:49;;;;;;;1.40;0.30;;;;;;;2.83;79.28;96261.22;5131383;27;20509;-58
2024/01/21 03:54:18;;;;;;;0.30;0.23;;;;;;;2.86;79.79;96273.09;5131460;27;20461;-58
2024/01/21 03:56:46;;;;;;;0.30;0.30;;;;;;;3.05;80.45;96267.91;5132062;28;20969;-57
2024/01/21 03:59:15;;;;;;;0.30;0.30;;;;;;;3.51;79.95;96270.56;5132005;27;20504;-58
2024/01/21 04:01:44;;;;;;;0.43;0.30;;;;;;;3.49;78.89;96280.41;5131751;28;20506;-57
2024/01/21 04:04:13;;;;;;;0.30;0.20;;;;;;;3.23;77.97;96283.03;5132707;28;20844;-58
2024/01/21 04:06:44;;;;;;;0.30;0.20;;;;;;;2.97;78.65;96222.75;5131960;27;20442;-58
2024/01/21 04:09:15;;;;;;;0.40;0.30;;;;;;;3.38;80.04;96281.03;5132267;27;20442;-58
2024/01/21 04:11:44;;;;;;;0.30;0.20;;;;;;;2.94;78.99;96280.75;5133681;27;20464;-59
2024/01/21 04:14:12;;;;;;;0.30;0.20;;;;;;;3.01;79.76;96271.91;5135390;27;20521;-58
2024/01/21 04:16:41;;;;;;;2.00;0.53;;;;;;;3.07;78.33;96229.22;5135155;27;20767;-58
2024/01/21 04:19:10;;;;;;;0.40;0.30;;;;;;;3.15;77.79;96263.09;5136344;27;20489;-57
2024/01/21 04:21:39;;;;;;;0.30;0.20;;;;;;;3.18;77.87;96280.22;5136414;27;20447;-58
2024/01/21 04:24:08;;;;;;;0.30;0.20;;;;;;;3.17;77.28;96276.78;5135774;27;20434;-57
2024/01/21 04:26:38;;;;;;;0.30;0.20;;;;;;;3.10;77.03;96283.81;5135732;27;20473;-59
2024/01/21 04:29:07;;;;;;;0.30;0.20;;;;;;;3.10;78.33;96281.22;5135865;27;20445;-59
2024/01/21 04:31:35;;;;;;;0.30;0.20;;;;;;;3.32;77.20;96284.44;5136032;27;20914;-59
2024/01/21 04:34:04;;;;;;;0.30;0.20;;;;;;;3.08;77.24;96285.84;5135512;27;20526;-58
2024/01/21 04:36:32;;;;;;;10.53;3.37;;;;;;;3.00;77.89;96279.97;5135415;27;20438;-58
2024/01/21 04:39:01;;;;;;;0.77;0.77;;;;;;;2.77;77.93;96279.50;5135333;27;20546;-58
2024/01/21 04:41:30;;;;;;;0.77;0.60;;;;;;;2.60;79.21;96283.47;5135660;27;20466;-59
2024/01/21 04:44:00;;;;;;;0.50;0.47;;;;;;;2.59;79.17;96264.34;5135029;27;20438;-58
2024/01/21 04:46:29;;;;;;;2.67;0.70;;;;;;;2.67;80.30;96287.75;5135200;27;20456;-59
2024/01/21 04:48:58;;;;;;;0.30;0.20;;;;;;;2.77;80.16;96290.78;5135344;27;20946;-58
2024/01/21 04:51:26;;;;;;;0.67;0.60;;;;;;;3.04;80.46;96291.66;5134653;27;20445;-58
2024/01/21 04:53:55;;;;;;;0.50;0.40;;;;;;;2.96;78.45;96286.63;5134822;27;20476;-58
2024/01/21 04:56:24;;;;;;;2.97;0.77;;;;;;;3.19;79.14;96300.97;5135345;27;21039;-58
2024/01/21 04:58:53;;;;;;;0.40;0.40;;;;;;;3.17;78.13;96266.31;5134670;27;20471;-58
2024/01/21 05:01:26;;;;;;;0.60;0.50;;;;;;;3.16;78.45;96287.47;5134825;27;20427;-55
2024/01/21 05:03:55;;;;;;;0.50;0.50;;;;;;;3.00;78.58;96298.31;5131562;27;20442;-59
2024/01/21 05:06:24;;;;;;;0.40;0.33;;;;;;;3.38;78.79;96309.88;5129668;27;20437;-58
2024/01/21 05:08:52;;;;;;;0.40;0.30;;;;;;;3.64;78.79;96309.88;5134509;27;20623;-58
2024/01/21 05:11:21;;;;;;;1.57;1.17;;;;;;;3.45;77.02;96305.44;5134350;27;20442;-58
2024/01/21 05:13:50;;;;;;;0.50;0.40;;;;;;;3.28;78.68;96308.63;5134146;27;20437;-59
2024/01/21 05:16:19;;;;;;;0.87;0.87;;;;;;;3.29;78.26;96316.28;5134658;27;20525;-59
2024/01/21 05:18:51;;;;;;;0.47;0.40;;;;;;;3.16;78.58;96321.53;5134201;27;20465;-59
2024/01/21 05:21:20;;;;;;;0.67;0.60;;;;;;;3.12;79.58;96270.53;5134074;27;20452;-59
2024/01/21 05:23:51;;;;;;;0.30;0.30;;;;;;;3.18;77.83;96324.75;5132718;27;20442;-59
2024/01/21 05:26:20;;;;;;;0.67;0.63;;;;;;;3.10;77.27;96315.25;5133697;27;20446;-59
2024/01/21 05:28:48;;;;;;;1.00;0.40;;;;;;;3.20;79.00;96320.91;5135243;27;20461;-58
2024/01/21 05:31:17;;;;;;;0.60;0.40;;;;;;;3.20;78.24;96330.59;5134872;27;20434;-58
2024/01/21 05:33:46;;;;;;;0.40;0.40;;;;;;;3.34;76.89;96324.34;5134781;27;20442;-59
2024/01/21 05:36:18;;;;;;;3.03;0.47;;;;;;;3.57;77.18;96314.31;5134465;27;20487;-59
2024/01/21 05:38:46;;;;;;;0.73;0.73;;;;;;;3.37;76.84;96315.28;5133377;27;20431;-58
2024/01/21 05:41:17;;;;;;;0.67;0.67;;;;;;;2.65;76.24;96239.22;5133933;27;20476;-59
2024/01/21 05:43:45;;;;;;;0.80;0.80;;;;;;;3.34;77.46;96334.84;5134725;27;20434;-59
2024/01/21 05:46:14;;;;;;;0.60;0.53;;;;;;;2.73;75.82;96315.75;5134366;27;20442;-59
2024/01/21 05:48:42;;;;;;;1.17;0.63;;;;;;;3.00;77.37;96334.97;5134444;27;20486;-58
2024/01/21 05:51:11;;;;;;;0.40;0.40;;;;;;;3.19;77.32;96327.16;5134615;27;20518;-58
2024/01/21 05:53:42;;;;;;;0.83;0.83;;;;;;;3.16;78.50;96335.41;5133765;27;20992;-58
2024/01/21 05:56:11;;;;;;;1.60;0.83;;;;;;;3.22;79.21;96346.91;5133960;27;20567;-59
2024/01/21 05:58:40;;;;;;;1.07;1.07;;;;;;;3.14;79.96;96347.09;5133741;27;20445;-59
2024/01/21 06:01:08;;;;;;;1.80;1.70;;;;;;;2.91;79.87;96338.78;5133914;27;20499;-59
2024/01/21 06:03:37;;;;;;;1.30;1.20;;;;;;;3.02;79.03;96346.06;5133547;27;20519;-58
2024/01/21 06:06:06;;;;;;;1.30;1.20;;;;;;;3.10;78.56;96358.97;5121946;27;20870;-59
2024/01/21 06:08:34;;;;;;;3.90;0.70;;;;;;;2.71;78.97;96256.75;5133441;27;20437;-59
2024/01/21 06:11:05;;;;;;;1.17;0.77;;;;;;;2.76;78.31;96359.06;5133249;27;20442;-59
2024/01/21 06:13:33;;;;;;;1.40;1.07;;;;;;;3.07;79.03;96344.47;5133222;27;20430;-60
2024/01/21 06:16:02;;;;;;;0.87;0.70;;;;;;;3.22;77.62;96360.00;5133824;27;20423;-60
2024/01/21 06:18:31;;;;;;;2.60;0.90;;;;;;;2.97;76.89;96359.75;5133407;27;20442;-60
2024/01/21 06:21:00;;;;;;;0.90;0.47;;;;;;;2.24;77.63;96310.69;5133218;27;20572;-60
2024/01/21 06:23:28;;;;;;;0.60;0.47;;;;;;;3.23;76.74;96364.25;5133073;27;20929;-58
2024/01/21 06:25:57;;;;;;;10.10;0.70;;;;;;;2.93;77.09;96376.84;5132766;27;20950;-59
2024/01/21 06:28:27;;;;;;;0.40;0.40;;;;;;;2.89;76.88;96380.03;5132955;27;20477;-60
2024/01/21 06:30:56;;;;;;;0.47;0.40;;;;;;;2.83;76.64;96378.22;5132714;27;20836;-60
2024/01/21 06:33:25;;;;;;;0.50;0.40;;;;;;;3.22;77.11;96383.59;5132971;27;20517;-61
2024/01/21 06:35:53;;;;;;;0.80;0.67;;;;;;;3.29;77.15;96376.53;5132862;27;20426;-60
2024/01/21 06:38:22;;;;;;;0.63;0.63;;;;;;;3.38;77.16;96375.38;5133058;27;20495;-60
2024/01/21 06:40:51;;;;;;;0.93;0.93;;;;;;;3.51;79.41;96385.06;5131946;27;20478;-59
2024/01/21 06:43:20;;;;;;;0.70;0.70;;;;;;;3.54;77.48;96392.53;5133334;27;20474;-59
2024/01/21 06:45:50;;;;;;;0.60;0.60;;;;;;;3.28;75.22;96395.09;5133455;27;20954;-60
2024/01/21 06:48:19;;;;;;;0.70;0.60;;;;;;;3.43;77.54;96406.22;5133177;27;20442;-61
2024/01/21 06:50:50;;;;;;;1.87;1.00;;;;;;;3.76;75.37;96407.09;5132564;27;20441;-62
2024/01/21 06:53:18;;;;;;;1.07;0.97;;;;;;;3.51;74.81;96392.94;5132713;27;20462;-60
2024/01/21 06:55:47;;;;;;;0.73;0.63;;;;;;;3.81;73.01;96413.34;5106987;27;20805;-61
2024/01/21 06:58:16;;;;;;;1.90;0.67;;;;;;;4.18;73.69;96416.38;5131754;27;20474;-61
2024/01/21 07:00:50;;;;;;;0.83;0.80;;;;;;;3.62;72.47;96353.00;5125769;27;20466;-60
2024/01/21 07:03:21;;;;;;;1.03;1.03;;;;;;;4.31;72.56;96421.63;5132592;27;20430;-60
2024/01/21 07:05:50;;;;;;;0.50;0.50;;;;;;;3.68;72.46;96418.56;5132105;27;20472;-60
2024/01/21 07:08:19;;;;;;;0.50;0.43;;;;;;;3.49;73.02;96402.81;5132238;27;21111;-60
2024/01/21 07:10:48;;;;;;;0.40;0.30;;;;;;;4.20;74.94;96422.25;5133066;27;20454;-60
2024/01/21 07:13:17;;;;;;;0.70;0.60;;;;;;;3.94;74.26;96430.09;5132032;27;20438;-60
2024/01/21 07:15:45;;;;;;;2.10;0.50;;;;;;;4.22;72.69;96426.28;5128022;27;20439;-60
2024/01/21 07:18:14;;;;;;;0.30;0.27;;;;;;;4.45;72.74;96433.75;5133267;27;20945;-60
2024/01/21 07:20:44;;;;;;;0.40;0.30;;;;;;;4.68;71.81;96423.59;5132647;27;21058;-61
2024/01/21 07:23:13;;;;;;;0.30;0.30;;;;;;;4.46;71.12;96430.09;5133059;27;20440;-62
2024/01/21 07:25:42;;;;;;;0.53;0.53;;;;;;;4.84;70.72;96454.69;5132667;27;20845;-62
2024/01/21 07:28:10;;;;;;;0.30;0.20;;;;;;;4.81;71.15;96444.56;5132917;27;21063;-61
2024/01/21 07:30:39;;;;;;;0.30;0.20;;;;;;;5.41;73.16;96456.53;5105816;27;20797;-61
2024/01/21 07:33:08;;;;;;;0.30;0.20;;;;;;;5.50;69.68;96438.69;5132163;27;20517;-62
2024/01/21 07:35:37;;;;;;;0.30;0.20;;;;;;;5.59;68.70;96440.84;5132478;28;20461;-61
2024/01/21 07:38:07;;;;;;;0.40;0.30;;;;;;;5.71;67.94;96427.84;5132401;28;20453;-60
2024/01/21 07:40:35;;;;;;;0.30;0.20;;;;;;;5.48;68.57;96396.00;5130592;27;20562;-60
2024/01/21 07:43:05;;;;;;;0.40;0.30;;;;;;;4.96;67.26;96442.53;5130696;28;20487;-61
2024/01/21 07:45:34;;;;;;;0.30;0.30;;;;;;;4.63;69.14;96460.16;5131201;27;20438;-62
2024/01/21 07:48:02;;;;;;;1.03;0.37;;;;;;;4.88;68.75;96457.72;5134356;27;20916;-61
2024/01/21 07:50:31;;;;;;;0.73;0.73;;;;;;;4.48;69.44;96465.63;5134788;27;20452;-60
2024/01/21 07:53:00;;;;;;;0.50;0.50;;;;;;;4.62;69.13;96468.25;5135050;27;20474;-60
2024/01/21 07:55:30;;;;;;;0.73;0.60;;;;;;;4.69;69.65;96455.91;5134746;27;20426;-61
2024/01/21 07:57:59;;;;;;;3.30;0.70;;;;;;;4.48;68.68;96472.69;5136543;27;20422;-60
2024/01/21 08:00:26;;;;;;;0.40;0.40;;;;;;;4.75;68.40;96474.31;5135652;27;20936;-61
2024/01/21 08:02:55;;;;;;;0.40;0.30;;;;;;;4.68;68.11;96477.94;5136135;27;20935;-60
2024/01/21 08:05:24;;;;;;;0.50;0.40;;;;;;;4.32;66.64;96467.88;5136271;27;20436;-60
2024/01/21 08:07:53;;;;;;;0.40;0.40;;;;;;;4.01;67.98;96423.03;5135843;27;20438;-60
2024/01/21 08:10:21;;;;;;;0.30;0.30;;;;;;;4.69;68.05;96480.38;5136327;27;20513;-61
2024/01/21 08:12:51;;;;;;;0.30;0.30;;;;;;;4.95;68.03;96485.59;5136179;27;20937;-60
2024/01/21 08:15:20;;;;;;;0.30;0.30;;;;;;;5.39;66.83;96487.47;5135562;27;20430;-60
2024/01/21 08:17:49;;;;;;;0.30;0.20;;;;;;;5.85;67.45;96475.94;5135674;27;20430;-59
2024/01/21 08:20:18;;;;;;;0.40;0.30;;;;;;;5.32;63.91;96480.63;5136117;27;20491;-59
2024/01/21 08:22:47;;;;;;;0.40;0.40;;;;;;;5.44;67.26;96481.59;5135438;27;20997;-60
2024/01/21 08:25:16;;;;;;;0.40;0.30;;;;;;;5.51;64.72;96471.84;5136190;27;20975;-59
2024/01/21 08:27:45;;;;;;;0.43;0.40;;;;;;;6.34;66.09;96481.31;5135918;27;20434;-58
2024/01/21 08:30:16;;;;;;;0.97;0.40;;;;;;;5.44;63.18;96429.81;5135481;27;20462;-59
2024/01/21 08:32:44;;;;;;;0.40;0.30;;;;;;;5.26;63.49;96484.09;5135452;27;20435;-59
2024/01/21 08:35:13;;;;;;;0.50;0.50;;;;;;;5.30;65.81;96486.09;5135514;27;20887;-59
2024/01/21 08:37:41;;;;;;;0.67;0.60;;;;;;;4.49;63.72;96438.38;5135821;27;20918;-58
2024/01/21 08:40:12;;;;;;;0.87;0.40;;;;;;;4.74;64.17;96485.81;5135574;27;20521;-59
2024/01/21 08:42:41;;;;;;;0.47;0.30;;;;;;;5.35;65.92;96490.72;5121638;27;20530;-59
2024/01/21 08:45:10;;;;;;;0.30;0.30;;;;;;;5.26;64.57;96487.53;5134967;27;20491;-57
2024/01/21 08:47:40;;;;;;;0.50;0.40;;;;;;;5.52;64.45;96471.63;5135518;27;20800;-58
2024/01/21 08:50:10;;;;;;;0.50;0.50;;;;;;;5.47;63.01;96491.69;5133902;27;20438;-59
2024/01/21 08:52:39;;;;;;;0.50;0.30;;;;;;;5.49;63.78;96482.56;5123375;27;20838;-59
2024/01/21 08:55:08;;;;;;;0.47;0.47;;;;;;;5.58;64.26;96496.28;5135171;27;20434;-58
2024/01/21 08:57:37;;;;;;;7.93;0.43;;;;;;;6.11;63.86;96494.22;5134687;27;20505;-60
2024/01/21 09:00:08;;;;;;;0.40;0.40;;;;;;;7.09;60.75;96492.59;5135548;27;20993;-60
2024/01/21 09:02:42;;;;;;;1.03;0.93;;;;;;;7.80;58.27;96482.22;5135213;27;20473;-60
2024/01/21 09:05:13;;;;;;;1.20;1.20;;;;;;;8.81;54.39;96478.47;5134756;27;20442;-58
2024/01/21 09:07:42;;;;;;;3.17;0.70;;;;;;;9.68;55.25;96475.84;5135091;27;20430;-56
2024/01/21 09:10:11;;;;;;;1.80;0.70;;;;;;;9.83;51.41;96471.66;5135251;27;20510;-56
2024/01/21 09:12:39;;;;;;;0.47;0.40;;;;;;;10.85;51.74;96467.06;5134982;27;20439;-56
2024/01/21 09:15:10;;;;;;;0.60;0.50;;;;;;;11.43;50.61;96398.31;5108508;27;20467;-57
2024/01/21 09:17:39;;;;;;;0.53;0.53;;;;;;;11.88;49.25;96458.34;5133267;27;20431;-56
2024/01/21 09:20:10;;;;;;;1.03;0.60;;;;;;;12.10;53.91;96382.03;5134880;27;20442;-57
2024/01/21 09:22:39;;;;;;;0.70;0.70;;;;;;;12.38;44.52;96452.72;5133905;27;20506;-56
2024/01/21 09:25:08;;;;;;;1.03;1.03;;;;;;;12.47;48.03;96454.66;5134700;27;20463;-58
2024/01/21 09:27:36;;;;;;;0.80;0.60;;;;;;;11.61;45.77;96445.00;5134495;27;21027;-59
2024/01/21 09:30:06;;;;;;;0.60;0.40;;;;;;;11.60;44.79;96455.88;5134655;27;20438;-59
2024/01/21 09:32:35;;;;;;;0.40;0.37;;;;;;;11.84;46.35;96436.00;5134626;27;20440;-60
2024/01/21 09:35:04;;;;;;;0.40;0.30;;;;;;;12.47;48.24;96443.25;5134900;27;20431;-60
2024/01/21 09:37:34;;;;;;;0.60;0.60;;;;;;;11.88;43.57;96450.38;5134595;27;20458;-59
2024/01/21 09:40:03;;;;;;;0.87;0.73;;;;;;;12.65;42.87;96448.16;5134469;27;20462;-58
2024/01/21 09:42:32;;;;;;;0.40;0.30;;;;;;;11.94;40.14;96441.44;5133599;27;20477;-58
2024/01/21 09:45:01;;;;;;;0.40;0.30;;;;;;;12.10;41.14;96443.16;5133970;27;20433;-58
2024/01/21 09:47:29;;;;;;;0.40;0.30;;;;;;;12.72;42.37;96433.59;5134182;27;20431;-59
2024/01/21 09:49:59;;;;;;;0.63;0.63;;;;;;;12.29;40.35;96390.44;5133872;27;20513;-60
2024/01/21 09:52:28;;;;;;;0.40;0.40;;;;;;;11.85;39.95;96427.78;5107033;27;20437;-59
2024/01/21 09:54:58;;;;;;;0.40;0.30;;;;;;;12.66;39.36;96428.50;5133889;27;20514;-59
2024/01/21 09:57:27;;;;;;;0.50;0.40;;;;;;;12.61;41.52;96421.28;5134023;27;20469;-60
2024/01/21 09:59:55;;;;;;;0.40;0.33;;;;;;;12.13;41.04;96418.75;5134011;27;20442;-60
2024/01/21 10:02:25;;;;;;;0.60;0.43;;;;;;;13.07;39.08;96422.44;5133876;27;20513;-61
2024/01/21 10:04:54;;;;;;;0.47;0.47;;;;;;;14.47;39.66;96420.50;5133206;27;20442;-60
2024/01/21 10:07:24;;;;;;;0.60;0.60;;;;;;;15.27;38.52;96390.19;5133409;27;20446;-61
2024/01/21 10:09:54;;;;;;;0.40;0.30;;;;;;;14.60;36.38;96406.59;5133170;27;20499;-59
2024/01/21 10:12:25;;;;;;;0.40;0.30;;;;;;;14.52;36.26;96407.94;5133760;27;20434;-59
2024/01/21 10:14:54;;;;;;;0.50;0.40;;;;;;;15.25;37.57;96403.81;5133359;27;20789;-60
2024/01/21 10:17:25;;;;;;;0.70;0.33;;;;;;;15.17;37.97;96408.94;5133457;27;20435;-60
2024/01/21 10:19:55;;;;;;;0.50;0.47;;;;;;;14.85;35.23;96395.13;5133318;27;20539;-59
2024/01/21 10:22:26;;;;;;;0.87;0.87;;;;;;;15.36;35.13;96401.09;5133635;27;20542;-59
2024/01/21 10:24:56;;;;;;;1.17;0.50;;;;;;;16.49;35.23;96401.84;5133241;27;20439;-59
2024/01/21 10:27:27;;;;;;;0.40;0.20;;;;;;;16.51;35.89;96397.00;5132917;27;20430;-58
2024/01/21 10:29:57;;;;;;;0.60;0.40;;;;;;;16.59;35.21;96358.97;5133556;27;20442;-59
2024/01/21 10:32:28;;;;;;;0.40;0.20;;;;;;;17.09;35.43;96392.50;5133224;27;20446;-58
2024/01/21 10:34:58;;;;;;;0.80;0.80;;;;;;;17.89;35.66;96398.78;5133480;27;20446;-58
2024/01/21 10:37:29;;;;;;;0.40;0.30;;;;;;;17.07;35.13;96394.66;5132939;27;20951;-56
2024/01/21 10:39:58;;;;;;;0.50;0.30;;;;;;;17.12;35.71;96394.59;5132958;27;20439;-57
2024/01/21 10:42:29;;;;;;;0.47;0.33;;;;;;;17.68;35.97;96392.88;5132923;27;20473;-57
2024/01/21 10:45:01;;;;;;;0.50;0.40;;;;;;;16.28;35.04;96365.63;5132833;27;20434;-57
2024/01/21 10:47:33;;;;;;;0.47;0.30;;;;;;;17.21;34.62;96392.88;5132835;27;20430;-56
2024/01/21 10:50:03;;;;;;;1.40;0.30;;;;;;;16.45;35.26;96390.09;5132101;27;20495;-57
2024/01/21 10:52:33;;;;;;;0.60;0.50;;;;;;;16.20;36.33;96382.25;5120817;27;20434;-56
2024/01/21 10:55:02;;;;;;;0.40;0.30;;;;;;;16.81;34.63;96387.94;5133063;27;20431;-56
2024/01/21 10:57:33;;;;;;;0.40;0.30;;;;;;;17.48;34.83;96347.53;5132300;27;20476;-57
2024/01/21 11:00:03;;;;;;;0.40;0.30;;;;;;;16.09;33.00;96357.44;5132826;27;20434;-57
2024/01/21 11:02:32;;;;;;;0.60;0.40;;;;;;;16.24;32.10;96375.28;5133151;27;20478;-56
2024/01/21 11:05:00;;;;;;;0.77;0.30;;;;;;;17.37;35.66;96350.66;5132225;27;20504;-57
2024/01/21 11:07:31;;;;;;;0.40;0.30;;;;;;;17.66;34.74;96372.81;5132335;27;20518;-57
2024/01/21 11:10:03;;;;;;;0.50;0.47;;;;;;;16.95;31.67;96349.50;5129921;27;20442;-57
2024/01/21 11:12:34;;;;;;;0.40;0.20;;;;;;;16.85;33.71;96368.34;5130457;27;20441;-57
2024/01/21 11:15:29;;;;;;;0.40;0.20;;;;;;;16.90;31.95;96364.84;5130360;27;20961;-57
2024/01/21 11:18:11;;;;;;;0.40;0.20;;;;;;;17.49;33.21;96365.22;5131271;27;20434;-57
2024/01/21 11:20:41;;;;;;;0.40;0.20;;;;;;;16.81;32.18;96370.00;5130274;27;20458;-57
2024/01/21 11:23:15;;;;;;;0.40;0.20;;;;;;;16.94;31.59;96323.81;5131105;27;20513;-57
2024/01/21 11:25:51;;;;;;;0.40;0.20;;;;;;;15.08;32.87;96341.09;5130516;27;20571;-57
2024/01/21 11:28:31;;;;;;;0.30;0.20;;;;;;;15.32;30.88;96365.34;5129920;27;20455;-57
2024/01/21 11:31:04;;;;;;;0.40;0.30;;;;;;;16.15;33.42;96364.38;5130157;27;20434;-56
2024/01/21 11:33:32;;;;;;;0.40;0.20;;;;;;;16.71;31.00;96361.28;5129964;27;20978;-57
2024/01/21 11:36:01;;;;;;;0.40;0.20;;;;;;;15.93;32.27;96371.22;5129508;28;20492;-59
2024/01/21 11:38:30;;;;;;;0.40;0.27;;;;;;;15.63;31.09;96366.84;5130212;28;20529;-58
2024/01/21 11:41:04;;;;;;;0.40;0.20;;;;;;;16.12;30.80;96332.81;5129913;27;20799;-58
2024/01/21 11:43:34;;;;;;;0.40;0.20;;;;;;;16.55;30.20;96362.47;5132127;27;20470;-56
2024/01/21 11:46:05;;;;;;;0.33;0.20;;;;;;;15.20;30.42;96368.34;5132176;27;20514;-58
2024/01/21 11:48:33;;;;;;;0.40;0.30;;;;;;;15.73;29.93;96364.94;5131732;28;20546;-57